FDMS/MTS METAR and TAF weather

Enter ICAO airport designator
Station Type Date Time Source
FDMS METAR 2020/07/03 09:00 UTC NOAA

FDMS 030900Z 17004KT CAVOK 19/07 Q1027 NOSIG


Station Type Date Time Source
FDMS Decoded METAR 2020/07/03 09:00 UTC NOAA

Manzini / Matsapa Airport, Swaziland (FDMS) 26-32S 031-18E
Jul 03, 2020 - 05:00 AM EDT / 2020.07.03 0900 UTC
Wind: from the S (170 degrees) at 5 MPH (4 KT):0
Visibility: greater than 7 mile(s):0
Temperature: 66 F (19 C)
Dew Point: 44 F (7 C)
Relative Humidity: 45%
Pressure (altimeter): 30.33 in. Hg (1027 hPa)
ob: FDMS 030900Z 17004KT CAVOK 19/07 Q1027 NOSIG
cycle: 9

Station Type Date Time Source
FDMS TAF 2020/03/05 06:00 UTC NOAA

TAF TAF FDMS 050400Z 0506/0518 06007KT CAVOK

Example: see airport list